Time,TemperatureF,DewpointF,PressureIn,WindDirection,WindDirectionDegrees,WindSpeedMPH,WindSpeedGustMPH,Humidity,HourlyPrecipIn,Conditions,Clouds,dailyrainin,SoftwareType,DateUTC
2013-01-20 17:08:00,107.6,99.9,30.55,North,0,0.0,0.0,100,0.84,,---,0.84,VWS V14.01,2013-01-21 01:08:00,
2013-01-20 17:09:00,31.9,29.3,30.52,SSE,158,0.2,0.2,90,2.19,,---,2.19,VWS V14.01,2013-01-21 01:09:00,
2013-01-20 17:10:00,31.9,29.3,30.52,SSE,158,0.0,0.2,90,2.19,,---,2.19,VWS V14.01,2013-01-21 01:10:00,
2013-01-20 17:11:00,31.7,29.1,30.52,ENE,68,0.4,0.4,90,2.19,,---,2.19,VWS V14.01,2013-01-21 01:11:00,
2013-01-20 17:12:00,31.7,29.1,30.53,ENE,68,0.7,0.7,90,2.19,,---,2.19,VWS V14.01,2013-01-21 01:12:00,
2013-01-20 17:13:00,31.7,29.1,30.52,ENE,68,0.2,0.4,90,2.19,,---,2.19,VWS V14.01,2013-01-21 01:13:00,
2013-01-20 17:14:00,31.7,29.1,30.52,ENE,68,0.0,0.4,90,2.19,,---,2.19,VWS V14.01,2013-01-21 01:14:00,
2013-01-20 17:15:00,31.7,29.1,30.52,ENE,68,0.0,0.0,90,2.19,,---,2.19,VWS V14.01,2013-01-21 01:15:00,
2013-01-20 17:16:00,31.7,29.1,30.53,ENE,68,0.0,0.0,90,2.19,,---,2.19,VWS V14.01,2013-01-21 01:16:00,
2013-01-20 17:17:00,31.7,29.1,30.52,ENE,68,0.0,0.0,90,2.19,,---,2.19,VWS V14.01,2013-01-21 01:17:00,
2013-01-20 17:18:00,31.7,29.1,30.52,ENE,68,0.0,0.0,90,2.19,,---,2.19,VWS V14.01,2013-01-21 01:18:00,
2013-01-20 17:19:00,31.7,29.1,30.52,ENE,68,0.0,0.0,90,2.19,,---,2.19,VWS V14.01,2013-01-21 01:19:00,
2013-01-20 17:20:00,31.7,29.1,30.52,ENE,68,0.0,0.0,90,2.19,,---,2.19,VWS V14.01,2013-01-21 01:20:00,
2013-01-20 17:21:00,31.7,29.1,30.52,NE,45,1.1,1.1,90,2.19,,---,2.19,VWS V14.01,2013-01-21 01:21:00,
2013-01-20 17:22:00,31.7,29.1,30.52,NE,45,1.1,1.3,90,2.19,,---,2.19,VWS V14.01,2013-01-21 01:22:00,
2013-01-20 17:23:00,31.7,29.1,30.52,NE,45,0.9,0.9,90,2.19,,---,2.19,VWS V14.01,2013-01-21 01:23:00,
2013-01-20 17:24:00,31.7,29.1,30.52,NE,45,0.9,0.9,90,2.19,,---,2.19,VWS V14.01,2013-01-21 01:24:00,
2013-01-20 17:25:00,31.7,29.1,30.52,NE,45,0.7,0.9,90,2.19,,---,2.19,VWS V14.01,2013-01-21 01:25:00,
2013-01-20 17:26:00,31.7,29.1,30.52,NE,45,0.4,0.7,90,2.19,,---,2.19,VWS V14.01,2013-01-21 01:26:00,
2013-01-20 17:27:00,31.7,29.1,30.52,NE,45,0.4,0.9,90,2.19,,---,2.19,VWS V14.01,2013-01-21 01:27:00,
2013-01-20 17:28:00,31.7,29.1,30.52,NE,45,0.4,0.7,90,2.19,,---,2.19,VWS V14.01,2013-01-21 01:28:00,
2013-01-20 17:29:00,31.7,29.1,30.52,NE,45,0.0,0.7,90,2.19,,---,2.19,VWS V14.01,2013-01-21 01:29:00,
2013-01-20 17:58:00,31.3,29.0,30.51,ENE,68,0.0,0.0,91,2.19,,---,2.19,VWS V14.01,2013-01-21 01:58:00,
2013-01-20 17:59:00,31.3,29.0,30.51,ENE,68,0.0,0.0,91,1.35,,---,2.19,VWS V14.01,2013-01-21 01:59:00,
2013-01-20 18:00:00,31.3,29.0,30.51,NW,315,0.4,0.4,91,1.35,,---,2.19,VWS V14.01,2013-01-21 02:00:00,
2013-01-20 18:01:00,31.3,29.0,30.51,NW,315,0.2,0.4,91,1.35,,---,2.19,VWS V14.01,2013-01-21 02:01:00,
2013-01-20 18:02:00,31.3,29.0,30.51,NW,315,0.0,0.2,91,1.35,,---,2.19,VWS V14.01,2013-01-21 02:02:00,
2013-01-20 18:03:00,31.1,28.8,30.51,NW,315,0.0,0.0,91,1.35,,---,2.19,VWS V14.01,2013-01-21 02:03:00,
2013-01-20 18:04:00,31.1,28.8,30.51,NW,315,0.0,0.0,91,1.35,,---,2.19,VWS V14.01,2013-01-21 02:04:00,
2013-01-20 18:05:00,31.1,28.8,30.51,NW,315,0.0,0.0,91,1.35,,---,2.19,VWS V14.01,2013-01-21 02:05:00,
2013-01-20 18:06:00,31.0,28.7,30.51,NW,315,0.0,0.0,91,1.35,,---,2.19,VWS V14.01,2013-01-21 02:06:00,
2013-01-20 18:07:00,31.0,28.7,30.51,North,0,0.0,0.0,91,1.35,,---,2.19,VWS V14.01,2013-01-21 02:07:00,
2013-01-20 18:08:00,31.0,28.7,30.51,North,0,0.7,0.7,91,1.35,,---,2.19,VWS V14.01,2013-01-21 02:08:00,
2013-01-20 18:09:00,31.0,28.7,30.51,North,0,0.7,0.7,91,1.35,,---,2.19,VWS V14.01,2013-01-21 02:09:00,
2013-01-20 18:10:00,31.0,28.7,30.51,North,0,1.1,1.1,91,0.00,,---,2.19,VWS V14.01,2013-01-21 02:10:00,
2013-01-20 18:11:00,31.0,28.7,30.51,NNE,22,0.7,1.1,91,0.00,,---,2.19,VWS V14.01,2013-01-21 02:11:00,
2013-01-20 18:12:00,31.0,28.7,30.51,NNE,22,0.9,1.1,91,0.00,,---,2.19,VWS V14.01,2013-01-21 02:12:00,
2013-01-20 18:13:00,31.0,28.7,30.51,NNE,22,0.9,0.9,91,0.00,,---,2.19,VWS V14.01,2013-01-21 02:13:00,
2013-01-20 18:14:00,31.0,28.7,30.51,North,0,0.4,0.9,91,0.00,,---,2.19,VWS V14.01,2013-01-21 02:14:00,
2013-01-20 18:15:00,31.0,28.7,30.51,NNE,22,0.4,0.7,91,0.00,,---,2.19,VWS V14.01,2013-01-21 02:15:00,
2013-01-20 18:16:00,31.0,28.7,30.51,NNE,22,0.2,0.4,91,0.00,,---,2.19,VWS V14.01,2013-01-21 02:16:00,
2013-01-20 18:17:00,31.0,28.7,30.51,NNE,22,0.0,0.2,91,0.00,,---,2.19,VWS V14.01,2013-01-21 02:17:00,
2013-01-20 18:18:00,31.0,28.7,30.51,ENE,68,0.0,0.0,91,0.00,,---,2.19,VWS V14.01,2013-01-21 02:18:00,
2013-01-20 18:19:00,31.0,28.7,30.51,ENE,68,0.0,0.0,91,0.00,,---,2.19,VWS V14.01,2013-01-21 02:19:00,
2013-01-20 18:20:00,31.0,28.7,30.51,NNE,22,1.6,1.6,91,0.00,,---,2.19,VWS V14.01,2013-01-21 02:20:00,
2013-01-20 18:21:00,31.0,28.7,30.51,NNE,22,0.7,1.6,91,0.00,,---,2.19,VWS V14.01,2013-01-21 02:21:00,
2013-01-20 18:25:00,30.8,28.5,30.51,ENE,68,0.0,0.0,91,0.00,,---,2.19,VWS V14.01,2013-01-21 02:25:00,
2013-01-20 18:26:00,31.0,28.7,30.51,ENE,68,0.0,0.0,91,0.00,,---,2.19,VWS V14.01,2013-01-21 02:26:00,
2013-01-20 18:27:00,30.8,28.5,30.50,East,90,0.0,0.0,91,0.00,,---,2.19,VWS V14.01,2013-01-21 02:27:00,
2013-01-20 18:28:00,30.8,28.5,30.50,East,90,0.0,0.0,91,0.00,,---,2.19,VWS V14.01,2013-01-21 02:28:00,
2013-01-20 18:29:00,30.8,28.5,30.51,ESE,112,0.4,0.4,91,0.00,,---,2.19,VWS V14.01,2013-01-21 02:29:00,
2013-01-20 18:30:00,30.8,28.5,30.50,SE,135,0.4,0.4,91,0.00,,---,2.19,VWS V14.01,2013-01-21 02:30:00,
2013-01-20 18:31:00,31.0,28.7,30.50,SE,135,0.2,0.4,91,0.00,,---,2.19,VWS V14.01,2013-01-21 02:31:00,
2013-01-20 18:32:00,30.8,28.5,30.50,SE,135,0.0,0.2,91,0.00,,---,2.19,VWS V14.01,2013-01-21 02:32:00,
2013-01-20 18:33:00,30.8,28.5,30.50,ESE,112,0.0,0.0,91,0.00,,---,2.19,VWS V14.01,2013-01-21 02:33:00,
2013-01-20 18:34:00,30.8,28.5,30.50,ESE,112,0.0,0.0,91,0.00,,---,2.19,VWS V14.01,2013-01-21 02:34:00,
2013-01-20 18:35:00,30.8,28.5,30.50,East,90,0.4,0.4,91,0.00,,---,2.19,VWS V14.01,2013-01-21 02:35:00,
2013-01-20 18:36:00,30.8,28.5,30.50,East,90,0.4,0.4,91,0.00,,---,2.19,VWS V14.01,2013-01-21 02:36:00,
2013-01-20 18:37:00,30.8,28.5,30.50,East,90,0.7,0.7,91,0.00,,---,2.19,VWS V14.01,2013-01-21 02:37:00,
2013-01-20 18:38:00,30.8,28.5,30.50,East,90,0.4,0.7,91,0.00,,---,2.19,VWS V14.01,2013-01-21 02:38:00,
2013-01-20 18:39:00,30.8,28.5,30.50,NE,45,0.9,1.3,91,0.00,,---,2.19,VWS V14.01,2013-01-21 02:39:00,
2013-01-20 18:40:00,30.8,28.5,30.50,ESE,112,0.2,1.1,91,0.00,,---,2.19,VWS V14.01,2013-01-21 02:40:00,
2013-01-20 18:41:00,30.8,28.5,30.50,ESE,112,0.2,1.1,91,0.00,,---,2.19,VWS V14.01,2013-01-21 02:41:00,
2013-01-20 18:42:00,30.8,28.5,30.50,ESE,112,0.0,0.4,91,0.00,,---,2.19,VWS V14.01,2013-01-21 02:42:00,
2013-01-20 18:43:00,30.8,28.5,30.50,NE,45,0.0,0.7,91,0.00,,---,2.19,VWS V14.01,2013-01-21 02:43:00,
2013-01-20 18:44:00,30.8,28.5,30.50,NNE,22,0.0,0.0,91,0.00,,---,2.19,VWS V14.01,2013-01-21 02:44:00,
2013-01-20 18:45:00,30.6,28.3,30.50,NNE,22,0.0,0.0,91,0.00,,---,2.19,VWS V14.01,2013-01-21 02:45:00,
2013-01-20 18:46:00,30.8,28.5,30.50,NNE,22,0.4,0.4,91,0.00,,---,2.19,VWS V14.01,2013-01-21 02:46:00,
2013-01-20 18:47:00,30.6,28.3,30.50,NNE,22,0.4,0.4,91,0.00,,---,2.19,VWS V14.01,2013-01-21 02:47:00,
2013-01-20 18:48:00,30.6,28.3,30.50,NNW,338,0.0,0.4,91,0.00,,---,2.19,VWS V14.01,2013-01-21 02:48:00,
2013-01-20 18:49:00,30.6,28.3,30.50,North,0,0.2,0.2,91,0.00,,---,2.19,VWS V14.01,2013-01-21 02:49:00,
2013-01-20 18:50:00,30.6,28.3,30.50,ENE,68,0.4,0.4,91,0.00,,---,2.19,VWS V14.01,2013-01-21 02:50:00,
2013-01-20 18:51:00,30.6,28.3,30.50,ENE,68,0.7,0.7,91,0.00,,---,2.19,VWS V14.01,2013-01-21 02:51:00,
2013-01-20 18:52:00,30.6,28.3,30.50,ENE,68,0.4,0.7,91,0.00,,---,2.19,VWS V14.01,2013-01-21 02:52:00,
2013-01-20 18:53:00,30.6,28.3,30.50,NNE,22,0.4,0.4,91,0.00,,---,2.19,VWS V14.01,2013-01-21 02:53:00,
2013-01-20 18:54:00,30.6,28.3,30.50,North,0,0.7,0.7,91,0.00,,---,2.19,VWS V14.01,2013-01-21 02:54:00,
2013-01-20 18:55:00,30.6,28.3,30.50,NNE,22,0.4,0.7,91,0.00,,---,2.19,VWS V14.01,2013-01-21 02:55:00,
2013-01-20 18:56:00,30.4,28.1,30.50,NNE,22,0.9,0.9,91,0.00,,---,2.19,VWS V14.01,2013-01-21 02:56:00,
2013-01-20 18:57:00,30.4,28.1,30.50,NNE,22,0.9,0.9,91,0.00,,---,2.19,VWS V14.01,2013-01-21 02:57:00,
2013-01-20 18:58:00,30.4,28.1,30.50,North,0,0.9,1.1,91,0.00,,---,2.19,VWS V14.01,2013-01-21 02:58:00,
2013-01-20 18:59:00,30.4,28.1,30.50,NNE,22,0.7,1.6,91,0.00,,---,2.19,VWS V14.01,2013-01-21 02:59:00,
2013-01-20 19:00:00,30.4,28.1,30.50,North,0,0.4,0.4,91,0.00,,---,2.19,VWS V14.01,2013-01-21 03:00:00,
2013-01-20 19:01:00,30.4,28.1,30.50,North,0,0.2,0.4,91,0.00,,---,2.19,VWS V14.01,2013-01-21 03:01:00,
2013-01-20 19:02:00,30.4,28.1,30.50,North,0,0.0,0.2,91,0.00,,---,2.19,VWS V14.01,2013-01-21 03:02:00,
2013-01-20 19:03:00,30.2,27.9,30.50,North,0,0.0,0.0,91,0.00,,---,2.19,VWS V14.01,2013-01-21 03:03:00,
2013-01-20 19:04:00,30.2,27.9,30.50,North,0,0.0,0.0,91,0.00,,---,2.19,VWS V14.01,2013-01-21 03:04:00,
2013-01-20 19:05:00,30.2,27.9,30.50,North,0,0.0,0.0,91,0.00,,---,2.19,VWS V14.01,2013-01-21 03:05:00,
2013-01-20 19:10:00,30.2,27.9,30.50,North,0,0.0,0.0,91,0.00,,---,0.00,VWS V14.01,2013-01-21 03:10:00,
2013-01-20 19:15:00,30.1,27.8,30.50,ENE,68,0.0,203.6,91,0.00,,---,2.19,VWS V14.01,2013-01-21 03:15:00,
2013-01-20 19:17:00,30.1,27.8,30.50,ENE,68,0.7,0.7,91,0.00,,---,2.19,VWS V14.01,2013-01-21 03:17:00,
2013-01-20 19:18:00,30.1,27.8,30.50,ENE,68,1.1,1.1,91,0.00,,---,2.19,VWS V14.01,2013-01-21 03:18:00,
2013-01-20 19:19:00,30.1,27.8,30.50,ENE,68,1.3,1.3,91,0.00,,---,2.19,VWS V14.01,2013-01-21 03:19:00,
2013-01-20 19:20:00,29.9,27.6,30.50,ENE,68,0.4,0.4,91,0.00,,---,2.19,VWS V14.01,2013-01-21 03:20:00,
2013-01-20 19:21:00,29.9,27.6,30.50,ENE,68,0.0,0.4,91,0.00,,---,2.19,VWS V14.01,2013-01-21 03:21:00,
2013-01-20 19:22:00,29.9,27.6,30.50,ENE,68,0.0,0.0,91,0.00,,---,2.19,VWS V14.01,2013-01-21 03:22:00,
2013-01-20 19:23:00,29.9,27.6,30.51,ENE,68,0.7,0.7,91,0.00,,---,2.19,VWS V14.01,2013-01-21 03:23:00,
2013-01-20 19:24:00,29.9,27.6,30.51,ENE,68,0.0,0.7,91,0.00,,---,2.19,VWS V14.01,2013-01-21 03:24:00,
2013-01-20 19:25:00,29.9,27.6,30.51,ENE,68,0.0,0.0,91,0.00,,---,2.19,VWS V14.01,2013-01-21 03:25:00,
2013-01-20 19:26:00,29.9,27.6,30.50,ENE,68,0.0,0.0,91,0.00,,---,2.19,VWS V14.01,2013-01-21 03:26:00,
2013-01-20 19:27:00,29.7,27.4,30.50,ENE,68,0.7,0.9,91,0.00,,---,2.19,VWS V14.01,2013-01-21 03:27:00,
2013-01-20 19:28:00,29.7,27.4,30.50,ENE,68,0.0,0.7,91,0.00,,---,2.19,VWS V14.01,2013-01-21 03:28:00,
2013-01-20 19:29:00,29.7,27.4,30.51,ENE,68,0.0,0.2,91,0.00,,---,2.19,VWS V14.01,2013-01-21 03:29:00,
2013-01-20 19:30:00,29.7,27.4,30.51,ENE,68,0.0,0.0,91,0.00,,---,2.19,VWS V14.01,2013-01-21 03:30:00,
2013-01-20 19:31:00,29.7,27.4,30.50,ENE,68,0.0,0.0,91,0.00,,---,2.19,VWS V14.01,2013-01-21 03:31:00,
2013-01-20 19:32:00,29.7,27.4,30.51,ENE,68,0.0,0.0,91,0.00,,---,2.19,VWS V14.01,2013-01-21 03:32:00,
2013-01-20 19:33:00,29.7,27.4,30.51,ENE,68,0.0,0.4,91,0.00,,---,2.19,VWS V14.01,2013-01-21 03:33:00,
2013-01-20 19:34:00,29.7,27.4,30.51,ENE,68,0.0,0.0,91,0.00,,---,2.19,VWS V14.01,2013-01-21 03:34:00,
2013-01-20 19:35:00,29.7,27.4,30.51,ENE,68,0.0,0.0,91,0.00,,---,2.19,VWS V14.01,2013-01-21 03:35:00,
2013-01-20 19:36:00,29.7,27.4,30.51,ENE,68,0.4,0.4,91,0.00,,---,2.19,VWS V14.01,2013-01-21 03:36:00,
2013-01-20 19:37:00,29.7,27.4,30.51,ENE,68,0.0,0.4,91,0.00,,---,2.19,VWS V14.01,2013-01-21 03:37:00,
2013-01-20 19:38:00,29.5,27.2,30.51,ENE,68,0.0,0.0,91,0.00,,---,2.19,VWS V14.01,2013-01-21 03:38:00,
2013-01-20 19:39:00,29.5,27.2,30.51,ENE,68,0.0,0.0,91,0.00,,---,2.19,VWS V14.01,2013-01-21 03:39:00,
2013-01-20 19:40:00,29.5,27.2,30.51,ENE,68,0.0,0.0,91,0.00,,---,2.19,VWS V14.01,2013-01-21 03:40:00,
2013-01-20 19:41:00,29.5,27.2,30.51,ENE,68,0.0,0.0,91,0.00,,---,2.19,VWS V14.01,2013-01-21 03:41:00,
2013-01-20 19:42:00,29.5,27.2,30.51,ENE,68,0.0,0.0,91,0.00,,---,2.19,VWS V14.01,2013-01-21 03:42:00,
2013-01-20 19:43:00,29.5,27.2,30.51,ENE,68,0.0,0.0,91,0.00,,---,2.19,VWS V14.01,2013-01-21 03:43:00,
2013-01-20 19:44:00,29.5,27.2,30.51,ENE,68,0.0,0.0,91,0.00,,---,2.19,VWS V14.01,2013-01-21 03:44:00,
2013-01-20 19:45:00,29.5,27.2,30.51,ENE,68,0.0,0.0,91,0.00,,---,2.19,VWS V14.01,2013-01-21 03:45:00,
2013-01-20 19:46:00,29.5,27.2,30.51,ENE,68,0.0,0.0,91,0.00,,---,2.19,VWS V14.01,2013-01-21 03:46:00,
2013-01-20 19:47:00,29.5,27.2,30.51,ENE,68,0.0,0.0,91,0.00,,---,2.19,VWS V14.01,2013-01-21 03:47:00,
2013-01-20 19:48:00,29.5,27.2,30.51,ENE,68,0.0,0.0,91,0.00,,---,2.19,VWS V14.01,2013-01-21 03:48:00,
2013-01-20 19:49:00,29.5,27.2,30.51,ENE,68,0.0,0.0,91,0.00,,---,2.19,VWS V14.01,2013-01-21 03:49:00,
2013-01-20 19:50:00,29.5,27.2,30.51,ENE,68,0.0,0.0,91,0.00,,---,2.19,VWS V14.01,2013-01-21 03:50:00,
2013-01-20 19:51:00,29.3,27.0,30.51,ENE,68,0.0,0.0,91,0.00,,---,2.19,VWS V14.01,2013-01-21 03:51:00,
2013-01-20 19:52:00,29.3,27.0,30.51,ENE,68,0.0,0.0,91,0.00,,---,2.19,VWS V14.01,2013-01-21 03:52:00,
2013-01-20 19:53:00,29.3,27.0,30.51,ENE,68,0.0,0.0,91,0.00,,---,2.19,VWS V14.01,2013-01-21 03:53:00,
2013-01-20 19:54:00,29.3,27.0,30.51,ENE,68,0.0,0.0,91,0.00,,---,2.19,VWS V14.01,2013-01-21 03:54:00,
2013-01-20 19:55:00,29.3,27.0,30.51,ENE,68,0.4,0.4,91,0.00,,---,2.19,VWS V14.01,2013-01-21 03:55:00,
2013-01-20 19:56:00,29.3,27.0,30.51,ENE,68,0.0,0.4,91,0.00,,---,2.19,VWS V14.01,2013-01-21 03:56:00,
2013-01-20 19:57:00,29.3,27.0,30.51,ENE,68,0.0,0.0,91,0.00,,---,2.19,VWS V14.01,2013-01-21 03:57:00,
2013-01-20 19:58:00,29.3,27.0,30.51,ENE,68,0.0,0.0,91,0.00,,---,2.19,VWS V14.01,2013-01-21 03:58:00,
2013-01-20 19:59:00,29.3,27.0,30.51,ENE,68,0.0,0.0,91,0.00,,---,2.19,VWS V14.01,2013-01-21 03:59:00,
2013-01-20 20:00:00,29.3,27.0,30.51,ENE,68,0.0,0.0,91,0.00,,---,2.19,VWS V14.01,2013-01-21 04:00:00,
2013-01-20 20:01:00,29.2,26.9,30.51,ENE,68,0.0,0.0,91,0.00,,---,2.19,VWS V14.01,2013-01-21 04:01:00,
2013-01-20 20:02:00,29.2,26.9,30.51,ENE,68,0.0,0.0,91,0.00,,---,2.19,VWS V14.01,2013-01-21 04:02:00,
2013-01-20 20:03:00,29.2,26.9,30.51,ENE,68,0.0,0.0,91,0.00,,---,2.19,VWS V14.01,2013-01-21 04:03:00,
2013-01-20 20:04:00,29.2,26.9,30.51,ENE,68,0.0,0.0,91,0.00,,---,2.19,VWS V14.01,2013-01-21 04:04:00,
2013-01-20 20:05:00,29.2,26.9,30.51,ENE,68,0.0,0.0,91,2.19,,---,2.19,VWS V14.01,2013-01-21 04:05:00,
2013-01-20 20:06:00,29.2,26.9,30.51,ENE,68,0.0,0.0,91,2.19,,---,2.19,VWS V14.01,2013-01-21 04:06:00,
2013-01-20 20:07:00,29.2,26.9,30.51,ENE,68,0.0,0.0,91,2.19,,---,2.19,VWS V14.01,2013-01-21 04:07:00,
2013-01-20 20:08:00,29.2,26.9,30.51,ENE,68,0.0,0.0,91,2.19,,---,2.19,VWS V14.01,2013-01-21 04:08:00,
2013-01-20 20:09:00,29.2,26.9,30.51,ENE,68,0.0,0.0,91,2.19,,---,2.19,VWS V14.01,2013-01-21 04:09:00,
2013-01-20 20:10:00,29.2,26.9,30.51,ENE,68,0.0,0.0,91,2.19,,---,2.19,VWS V14.01,2013-01-21 04:10:00,
2013-01-20 20:11:00,29.2,26.9,30.51,ENE,68,0.0,0.0,91,2.19,,---,2.19,VWS V14.01,2013-01-21 04:11:00,
2013-01-20 20:12:00,29.2,26.9,30.51,ENE,68,0.0,0.0,91,2.19,,---,2.19,VWS V14.01,2013-01-21 04:12:00,
2013-01-20 20:13:00,29.2,26.9,30.51,ENE,68,0.0,0.0,91,2.19,,---,2.19,VWS V14.01,2013-01-21 04:13:00,
2013-01-20 20:14:00,29.2,26.9,30.51,ENE,68,0.0,0.0,91,2.19,,---,2.19,VWS V14.01,2013-01-21 04:14:00,
2013-01-20 20:15:00,29.2,26.9,30.51,ENE,68,0.0,0.0,91,2.19,,---,2.19,VWS V14.01,2013-01-21 04:15:00,
2013-01-20 20:20:00,29.0,26.7,30.51,ENE,68,0.0,0.0,91,0.00,,---,2.19,VWS V14.01,2013-01-21 04:20:00,
2013-01-20 20:25:00,28.8,26.5,30.51,ENE,68,0.0,0.0,91,0.00,,---,2.19,VWS V14.01,2013-01-21 04:25:00,
2013-01-20 20:30:00,28.8,26.5,30.51,ENE,68,0.0,0.0,91,0.00,,---,2.19,VWS V14.01,2013-01-21 04:30:00,
2013-01-20 20:35:00,28.6,26.3,30.51,ENE,68,0.0,0.0,91,0.00,,---,2.19,VWS V14.01,2013-01-21 04:35:00,
2013-01-20 20:40:00,28.4,26.1,30.51,ENE,68,0.0,0.0,91,0.00,,---,2.19,VWS V14.01,2013-01-21 04:40:00,
2013-01-20 20:45:00,28.4,26.1,30.51,ENE,68,0.0,0.0,91,0.00,,---,2.19,VWS V14.01,2013-01-21 04:45:00,
2013-01-20 20:50:00,28.4,26.1,30.51,ENE,68,0.0,0.0,91,0.00,,---,2.19,VWS V14.01,2013-01-21 04:50:00,
2013-01-20 20:55:00,28.3,26.0,30.51,ENE,68,0.0,0.0,91,0.00,,---,2.19,VWS V14.01,2013-01-21 04:55:00,
2013-01-20 21:00:00,28.1,25.8,30.51,ENE,68,0.0,0.0,91,0.00,,---,2.19,VWS V14.01,2013-01-21 05:00:00,
2013-01-20 21:01:00,28.1,25.8,30.51,ENE,68,0.0,0.0,91,0.00,,---,2.19,VWS V14.01,2013-01-21 05:01:00,
2013-01-20 21:02:00,28.1,25.8,30.51,ENE,68,0.0,0.0,91,0.00,,---,0.00,VWS V14.01,2013-01-21 05:02:00,
2013-01-20 21:03:00,28.1,25.8,30.51,ENE,68,0.0,0.0,91,0.00,,---,2.19,VWS V14.01,2013-01-21 05:03:00,
2013-01-20 21:08:00,27.9,25.6,30.51,ENE,68,0.0,0.0,91,0.00,,---,2.19,VWS V14.01,2013-01-21 05:08:00,
2013-01-20 21:13:00,27.7,25.4,30.51,ENE,68,0.0,0.0,91,0.00,,---,2.19,VWS V14.01,2013-01-21 05:13:00,
2013-01-20 21:18:00,27.7,25.4,30.51,ENE,68,0.0,0.0,91,0.00,,---,2.19,VWS V14.01,2013-01-21 05:18:00,
2013-01-20 21:23:00,27.7,25.4,30.51,ENE,68,0.0,0.0,91,0.00,,---,2.19,VWS V14.01,2013-01-21 05:23:00,
2013-01-20 21:28:00,27.5,25.2,30.51,ENE,68,0.2,0.2,91,0.00,,---,2.19,VWS V14.01,2013-01-21 05:28:00,
2013-01-20 21:33:00,27.5,25.2,30.51,ENE,68,0.0,0.0,91,0.00,,---,2.19,VWS V14.01,2013-01-21 05:33:00,
2013-01-20 21:38:00,27.4,25.1,30.51,ENE,68,0.4,0.4,91,0.00,,---,2.19,VWS V14.01,2013-01-21 05:38:00,
2013-01-20 21:43:00,27.2,24.9,30.51,ENE,68,0.0,0.0,91,0.00,,---,2.19,VWS V14.01,2013-01-21 05:43:00,
2013-01-20 21:48:00,27.2,24.9,30.51,ENE,68,0.4,0.4,91,0.00,,---,2.19,VWS V14.01,2013-01-21 05:48:00,
2013-01-20 21:53:00,27.0,24.7,30.51,ENE,68,0.0,0.0,91,0.00,,---,2.19,VWS V14.01,2013-01-21 05:53:00,
2013-01-20 21:58:00,27.0,24.7,30.51,ENE,68,0.0,0.0,91,0.00,,---,2.19,VWS V14.01,2013-01-21 05:58:00,
2013-01-20 22:03:00,26.8,24.5,30.51,ENE,68,0.0,0.0,91,0.00,,---,2.19,VWS V14.01,2013-01-21 06:03:00,
2013-01-20 22:08:00,26.6,24.3,30.51,ENE,68,0.0,0.0,91,0.00,,---,2.19,VWS V14.01,2013-01-21 06:08:00,
2013-01-20 22:13:00,26.6,24.3,30.51,ENE,68,0.0,0.0,91,0.00,,---,2.19,VWS V14.01,2013-01-21 06:13:00,
2013-01-20 22:18:00,26.5,24.2,30.51,ENE,68,0.0,0.0,91,0.00,,---,2.19,VWS V14.01,2013-01-21 06:18:00,
2013-01-20 22:23:00,26.5,24.2,30.51,ENE,68,0.0,0.0,91,0.00,,---,2.19,VWS V14.01,2013-01-21 06:23:00,
2013-01-20 22:28:00,26.3,24.0,30.51,ENE,68,0.0,0.0,91,0.00,,---,2.19,VWS V14.01,2013-01-21 06:28:00,
2013-01-20 22:33:00,26.3,24.0,30.51,ENE,68,0.0,0.0,91,0.00,,---,2.19,VWS V14.01,2013-01-21 06:33:00,
2013-01-20 22:37:00,26.1,23.8,30.51,ENE,68,0.0,0.0,91,0.00,,---,2.19,VWS V14.01,2013-01-21 06:37:00,
2013-01-20 22:42:00,26.1,23.8,30.51,ENE,68,0.0,0.0,91,0.00,,---,2.19,VWS V14.01,2013-01-21 06:42:00,
2013-01-20 22:47:00,25.9,23.6,30.51,ENE,68,0.0,0.0,91,0.00,,---,2.19,VWS V14.01,2013-01-21 06:47:00,
2013-01-20 22:52:00,25.7,23.4,30.51,ENE,68,0.0,0.0,91,0.00,,---,2.19,VWS V14.01,2013-01-21 06:52:00,
2013-01-20 22:57:00,25.7,23.4,30.51,ENE,68,0.0,0.0,91,0.00,,---,2.19,VWS V14.01,2013-01-21 06:57:00,
2013-01-20 23:02:00,25.6,23.3,30.51,ENE,68,0.0,0.0,91,0.00,,---,2.19,VWS V14.01,2013-01-21 07:02:00,
2013-01-20 23:07:00,25.6,23.3,30.52,ENE,68,0.0,0.0,91,0.00,,---,2.19,VWS V14.01,2013-01-21 07:07:00,
2013-01-20 23:12:00,25.4,23.1,30.51,ENE,68,0.0,0.0,91,0.00,,---,2.19,VWS V14.01,2013-01-21 07:12:00,
2013-01-20 23:18:00,25.4,23.1,30.51,ENE,68,0.0,0.0,91,0.00,,---,2.19,VWS V14.01,2013-01-21 07:18:00,
2013-01-20 23:22:00,25.2,23.0,30.51,ENE,68,0.0,0.0,91,0.00,,---,2.19,VWS V14.01,2013-01-21 07:22:00,
2013-01-20 23:28:00,25.0,22.8,30.51,ENE,68,0.0,0.0,91,0.00,,---,2.19,VWS V14.01,2013-01-21 07:28:00,
2013-01-20 23:33:00,25.0,22.8,30.51,ENE,68,0.0,0.2,91,0.00,,---,2.19,VWS V14.01,2013-01-21 07:33:00,
2013-01-20 23:38:00,24.8,22.3,30.51,ENE,68,0.0,0.0,90,0.00,,---,2.19,VWS V14.01,2013-01-21 07:38:00,
2013-01-20 23:43:00,24.8,22.3,30.50,ENE,68,0.0,0.0,90,0.00,,---,2.19,VWS V14.01,2013-01-21 07:43:00,
2013-01-20 23:48:00,24.8,22.3,30.50,ENE,68,0.0,0.0,90,0.00,,---,2.19,VWS V14.01,2013-01-21 07:48:00,
2013-01-20 23:53:00,24.7,22.2,30.50,ENE,68,0.0,0.0,90,0.00,,---,2.19,VWS V14.01,2013-01-21 07:53:00,
2013-01-20 23:58:00,24.5,22.0,30.50,ENE,68,0.0,0.0,90,0.00,,---,2.19,VWS V14.01,2013-01-21 07:58:00,